Time;durP1;ratioP1;P1;durP2;ratioP2;P2;SDS_P1;SDS_P2;PMS_P1;PMS_P2;Temp;Humidity;BMP_temperature;BMP_pressure;BME280_temperature;BME280_humidity;BME280_pressure;Samples;Min_cycle;Max_cycle;Signal;HPM_P1;HPM_P2
2023/10/19 00:00:56;;;;;;;0.00;0.00;;;;;;;17.18;100.00;97210.09;5073081;28;20025;-44
2023/10/19 00:03:26;;;;;;;0.00;0.00;;;;;;;17.06;100.00;97209.69;5072670;28;20021;-43
2023/10/19 00:05:55;;;;;;;0.00;0.00;;;;;;;17.02;100.00;97224.56;5072933;28;20062;-44
2023/10/19 00:08:21;;;;;;;0.00;0.00;;;;;;;17.09;100.00;97219.75;5055193;28;20125;-44
2023/10/19 00:11:33;;;;;;;0.00;0.00;;;;;;;17.20;100.00;97215.91;5073026;28;20137;-44
2023/10/19 00:13:40;;;;;;;0.03;0.03;;;;;;;17.29;100.00;97200.22;5064473;28;20052;-44
2023/10/19 00:16:16;;;;;;;0.28;0.28;;;;;;;17.45;100.00;97206.94;5072731;28;20402;-44
2023/10/19 00:18:48;;;;;;;0.00;0.00;;;;;;;17.71;100.00;97202.16;5072667;28;20470;-44
2023/10/19 00:21:21;;;;;;;0.65;0.63;;;;;;;17.90;100.00;97206.75;5072546;28;20033;-44
2023/10/19 00:23:47;;;;;;;0.00;0.00;;;;;;;17.82;100.00;97208.13;5054772;28;20510;-44
2023/10/19 00:26:25;;;;;;;0.00;0.00;;;;;;;17.72;100.00;97194.97;5054459;28;20051;-45
2023/10/19 00:28:57;;;;;;;0.10;0.10;;;;;;;17.63;100.00;97204.66;5056337;28;20068;-45
2023/10/19 00:31:23;;;;;;;0.00;0.00;;;;;;;17.59;100.00;97215.03;5072755;28;20024;-45
2023/10/19 00:33:54;;;;;;;0.00;0.00;;;;;;;17.57;100.00;97219.81;5072376;28;20059;-45
2023/10/19 00:36:20;;;;;;;0.00;0.00;;;;;;;17.62;100.00;97209.13;5054459;28;20500;-45
2023/10/19 00:41:27;;;;;;;0.00;0.00;;;;;;;17.80;100.00;97220.09;5072280;28;20035;-44
2023/10/19 00:44:03;;;;;;;0.00;0.00;;;;;;;17.75;100.00;97207.69;5071500;28;20029;-44
2023/10/19 00:49:14;;;;;;;0.00;0.00;;;;;;;17.50;100.00;97211.41;5072244;28;20068;-44
2023/10/19 00:54:51;;;;;;;0.10;0.10;;;;;;;17.74;100.00;97185.66;5072159;28;20028;-45
2023/10/19 00:57:32;;;;;;;0.20;0.20;;;;;;;17.90;100.00;97167.72;5072018;28;20028;-45
2023/10/19 01:00:11;;;;;;;0.00;0.00;;;;;;;17.80;100.00;97162.50;5072087;28;20020;-45
2023/10/19 01:02:46;;;;;;;0.10;0.10;;;;;;;17.74;100.00;97168.94;5072021;28;20032;-45
2023/10/19 01:05:21;;;;;;;0.00;0.00;;;;;;;17.59;100.00;97161.97;5033600;28;20038;-45
2023/10/19 01:07:53;;;;;;;0.70;0.70;;;;;;;17.67;100.00;97176.47;5030978;28;20392;-45
2023/10/19 01:10:23;;;;;;;0.00;0.00;;;;;;;17.75;100.00;97166.00;5031980;28;20030;-45
2023/10/19 01:12:50;;;;;;;0.00;0.00;;;;;;;17.80;100.00;97167.03;5031920;28;20037;-45
2023/10/19 01:15:23;;;;;;;0.00;0.00;;;;;;;17.66;100.00;97161.63;5031956;28;20017;-45
2023/10/19 01:17:56;;;;;;;0.00;0.00;;;;;;;17.51;100.00;97149.34;5031928;28;20501;-45
2023/10/19 01:25:44;;;;;;;0.10;0.10;;;;;;;17.34;100.00;97131.19;5032014;28;20446;-45
2023/10/19 01:28:13;;;;;;;0.00;0.00;;;;;;;17.23;100.00;97121.81;5032046;28;20095;-45
2023/10/19 01:30:42;;;;;;;0.00;0.00;;;;;;;17.05;100.00;97120.66;5031738;28;20080;-45
2023/10/19 01:33:12;;;;;;;0.00;0.00;;;;;;;16.88;100.00;97110.47;5031704;28;20037;-45
2023/10/19 01:38:23;;;;;;;0.03;0.03;;;;;;;16.68;100.00;97106.94;5032027;28;20092;-45
2023/10/19 01:40:51;;;;;;;0.00;0.00;;;;;;;16.62;100.00;97099.28;5031910;28;20029;-45
2023/10/19 01:43:36;;;;;;;0.17;0.17;;;;;;;16.60;100.00;97106.72;5031594;28;20100;-45
2023/10/19 01:46:05;;;;;;;0.00;0.00;;;;;;;16.52;100.00;97097.50;5031639;28;20432;-45
2023/10/19 01:48:35;;;;;;;0.00;0.00;;;;;;;16.50;100.00;97105.75;5031466;28;20025;-45
2023/10/19 01:51:05;;;;;;;0.00;0.00;;;;;;;16.46;100.00;97102.06;5031507;28;20025;-44
2023/10/19 01:53:39;;;;;;;0.15;0.15;;;;;;;16.48;100.00;97107.06;5030220;28;20052;-44
2023/10/19 01:56:09;;;;;;;0.00;0.00;;;;;;;16.52;100.00;97100.97;5035233;28;20064;-45
2023/10/19 01:58:36;;;;;;;0.05;0.05;;;;;;;16.60;100.00;97088.19;5035684;28;20022;-45
2023/10/19 02:03:42;;;;;;;0.00;0.00;;;;;;;16.65;100.00;97086.28;5043311;28;20410;-44
2023/10/19 02:06:19;;;;;;;0.00;0.00;;;;;;;16.67;100.00;97070.91;5075234;28;20021;-45
2023/10/19 02:08:50;;;;;;;0.00;0.00;;;;;;;16.66;100.00;97069.34;5075237;28;20377;-44
2023/10/19 02:11:19;;;;;;;0.00;0.00;;;;;;;16.66;100.00;97077.28;5075179;28;20111;-45
2023/10/19 02:13:52;;;;;;;0.00;0.00;;;;;;;16.70;100.00;97072.19;5075096;28;20090;-45
2023/10/19 02:16:22;;;;;;;0.10;0.10;;;;;;;16.68;100.00;97061.91;5057072;28;20059;-45
2023/10/19 02:18:50;;;;;;;0.10;0.10;;;;;;;16.72;100.00;97049.66;5074966;28;20031;-45
2023/10/19 02:21:22;;;;;;;0.00;0.00;;;;;;;16.71;100.00;97052.59;5074868;28;20027;-45
2023/10/19 02:23:50;;;;;;;0.05;0.05;;;;;;;16.75;100.00;97043.00;5074890;28;20028;-45
2023/10/19 02:26:30;;;;;;;0.13;0.10;;;;;;;16.83;100.00;97039.78;5074805;28;20028;-45
2023/10/19 02:28:58;;;;;;;0.00;0.00;;;;;;;16.86;100.00;97036.56;5074775;28;20033;-45
2023/10/19 02:31:25;;;;;;;0.00;0.00;;;;;;;16.75;100.00;97037.72;5074706;28;20020;-45
2023/10/19 02:33:58;;;;;;;0.00;0.00;;;;;;;16.65;100.00;97029.88;5074728;28;20031;-45
2023/10/19 02:36:30;;;;;;;0.00;0.00;;;;;;;16.65;100.00;97030.66;5074673;28;20029;-45
2023/10/19 02:39:07;;;;;;;0.00;0.00;;;;;;;16.65;100.00;97021.94;5074626;28;20028;-44
2023/10/19 02:41:37;;;;;;;0.00;0.00;;;;;;;16.74;100.00;97017.56;5074807;28;20039;-44
2023/10/19 02:46:32;;;;;;;0.08;0.08;;;;;;;16.86;100.00;97011.91;5074477;28;20031;-44
2023/10/19 02:49:11;;;;;;;0.00;0.00;;;;;;;16.79;100.00;97012.25;5074751;28;20033;-44
2023/10/19 02:51:44;;;;;;;0.00;0.00;;;;;;;16.74;100.00;97015.75;5074698;28;20032;-44
2023/10/19 02:54:17;;;;;;;0.10;0.10;;;;;;;16.77;100.00;97014.38;5074443;28;20039;-44
2023/10/19 02:56:58;;;;;;;0.00;0.00;;;;;;;16.87;100.00;97016.16;5074594;28;20059;-45
2023/10/19 02:59:28;;;;;;;0.00;0.00;;;;;;;17.11;100.00;97022.25;5074334;28;20494;-44
2023/10/19 03:04:36;;;;;;;0.00;0.00;;;;;;;17.22;100.00;97006.22;5074023;28;20040;-44
2023/10/19 03:07:07;;;;;;;0.00;0.00;;;;;;;17.30;100.00;97002.91;5055364;28;20551;-44
2023/10/19 03:09:36;;;;;;;0.00;0.00;;;;;;;17.45;100.00;97013.34;5074144;28;20567;-45
2023/10/19 03:12:04;;;;;;;0.00;0.00;;;;;;;17.50;100.00;97005.28;5073992;28;20033;-45
2023/10/19 03:14:30;;;;;;;0.00;0.00;;;;;;;17.52;100.00;97015.63;5056477;28;20046;-45
2023/10/19 03:16:59;;;;;;;0.00;0.00;;;;;;;17.52;100.00;97005.00;5073963;28;20036;-46
2023/10/19 03:19:25;;;;;;;0.00;0.00;;;;;;;17.55;100.00;96997.28;5074115;28;20024;-45
2023/10/19 03:21:51;;;;;;;0.00;0.00;;;;;;;17.64;100.00;96993.97;5073837;28;20096;-46
2023/10/19 03:27:44;;;;;;;0.00;0.00;;;;;;;17.39;100.00;96985.31;5073722;28;20085;-46
2023/10/19 03:30:02;;;;;;;0.00;0.00;;;;;;;17.18;100.00;96990.06;5070390;28;20037;-45
2023/10/19 03:32:35;;;;;;;0.20;0.20;;;;;;;16.97;100.00;96973.66;5055710;28;20517;-45
2023/10/19 03:35:03;;;;;;;0.20;0.20;;;;;;;16.89;100.00;96990.97;5073797;28;20430;-46
2023/10/19 03:37:30;;;;;;;0.22;0.15;;;;;;;16.76;100.00;96975.69;5073557;28;20451;-46
2023/10/19 03:39:56;;;;;;;0.00;0.00;;;;;;;16.58;100.00;96983.31;5055512;28;20059;-46
2023/10/19 03:42:26;;;;;;;0.00;0.00;;;;;;;16.64;100.00;96970.00;5073506;28;20025;-45
2023/10/19 03:44:55;;;;;;;4.18;1.80;;;;;;;16.65;100.00;96977.69;5073322;28;20027;-46
2023/10/19 03:47:25;;;;;;;0.00;0.00;;;;;;;16.48;100.00;96964.09;5073515;28;20024;-46
2023/10/19 03:49:51;;;;;;;1.45;0.63;;;;;;;16.55;100.00;96961.91;5073513;28;20024;-46
2023/10/19 03:54:43;;;;;;;0.22;0.17;;;;;;;16.47;100.00;96952.72;5055452;28;20025;-45
2023/10/19 03:57:19;;;;;;;0.68;0.68;;;;;;;16.38;100.00;96971.06;5073086;28;20032;-45
2023/10/19 03:59:47;;;;;;;0.00;0.00;;;;;;;16.33;100.00;96967.69;5055509;28;20082;-45
2023/10/19 04:02:16;;;;;;;0.03;0.03;;;;;;;16.31;100.00;96967.19;5072937;28;20020;-44
2023/10/19 04:04:43;;;;;;;0.00;0.00;;;;;;;16.26;100.00;96960.06;5072754;28;20453;-45
2023/10/19 04:12:31;;;;;;;0.40;0.40;;;;;;;16.26;100.00;96943.38;5072850;28;20517;-45
2023/10/19 04:14:57;;;;;;;0.00;0.00;;;;;;;16.25;100.00;96949.75;5072795;28;20020;-45
2023/10/19 04:17:24;;;;;;;0.32;0.13;;;;;;;16.26;100.00;96935.44;5072628;28;20029;-45
2023/10/19 04:19:52;;;;;;;0.32;0.32;;;;;;;16.22;100.00;96958.25;5072676;28;20021;-46
2023/10/19 04:22:22;;;;;;;0.00;0.00;;;;;;;16.22;100.00;96952.97;5072574;28;20021;-46
2023/10/19 04:24:49;;;;;;;0.00;0.00;;;;;;;16.24;100.00;96948.97;5072838;28;20032;-46
2023/10/19 04:27:15;;;;;;;0.00;0.00;;;;;;;16.27;100.00;96944.97;5054613;28;20028;-45
2023/10/19 04:29:43;;;;;;;0.00;0.00;;;;;;;16.28;100.00;96935.94;5072471;28;20043;-46
2023/10/19 04:32:09;;;;;;;0.00;0.00;;;;;;;16.36;100.00;96945.97;5072404;28;20025;-45
2023/10/19 04:34:36;;;;;;;0.63;0.63;;;;;;;16.34;100.00;96945.44;5072666;28;20028;-46
2023/10/19 04:37:06;;;;;;;0.00;0.00;;;;;;;16.33;100.00;96947.28;5072628;28;20086;-46
2023/10/19 04:39:34;;;;;;;0.00;0.00;;;;;;;16.37;100.00;96953.59;5072274;28;20123;-46
2023/10/19 04:42:00;;;;;;;0.00;0.00;;;;;;;16.50;100.00;96957.47;5072203;28;20028;-46
2023/10/19 04:44:26;;;;;;;0.00;0.00;;;;;;;16.58;100.00;96937.53;5072199;28;20115;-46
2023/10/19 04:46:52;;;;;;;0.00;0.00;;;;;;;16.59;100.00;96925.84;5072115;28;20499;-46
2023/10/19 04:49:18;;;;;;;0.00;0.00;;;;;;;16.67;100.00;96921.78;5054290;28;20116;-46
2023/10/19 04:51:44;;;;;;;0.38;0.38;;;;;;;16.74;100.00;96914.25;5054246;28;20104;-46
2023/10/19 04:54:09;;;;;;;0.00;0.00;;;;;;;16.85;100.00;96910.47;5072187;28;20024;-46
2023/10/19 04:56:36;;;;;;;0.00;0.00;;;;;;;16.87;100.00;96908.31;5070983;28;20099;-45
2023/10/19 04:59:02;;;;;;;0.00;0.00;;;;;;;16.80;100.00;96904.41;5054134;28;20028;-45
2023/10/19 05:01:28;;;;;;;0.00;0.00;;;;;;;16.99;100.00;96909.78;5054225;28;20382;-45
2023/10/19 05:03:54;;;;;;;0.52;0.52;;;;;;;17.10;100.00;96908.53;5071633;28;20048;-46
2023/10/19 05:06:22;;;;;;;0.00;0.00;;;;;;;17.12;100.00;96903.75;5071895;28;20514;-46
2023/10/19 05:08:47;;;;;;;0.65;0.43;;;;;;;17.13;100.00;96890.22;5071942;28;20031;-46
2023/10/19 05:11:13;;;;;;;0.00;0.00;;;;;;;17.25;100.00;96881.81;5072119;28;20405;-46
2023/10/19 05:13:39;;;;;;;0.70;0.35;;;;;;;17.39;100.00;96867.84;5071847;28;20566;-46
2023/10/19 05:16:05;;;;;;;0.00;0.00;;;;;;;17.38;100.00;96864.38;5071855;28;20017;-46
2023/10/19 05:18:31;;;;;;;0.00;0.00;;;;;;;17.47;100.00;96867.19;5071808;28;20086;-46
2023/10/19 05:20:56;;;;;;;0.13;0.13;;;;;;;17.52;100.00;96857.25;5053785;28;20024;-45
2023/10/19 05:23:30;;;;;;;0.22;0.22;;;;;;;17.41;100.00;96855.09;5053761;28;20040;-45
2023/10/19 05:26:04;;;;;;;0.00;0.00;;;;;;;17.52;100.00;96845.88;5071692;28;20024;-45
2023/10/19 05:28:31;;;;;;;0.00;0.00;;;;;;;17.55;100.00;96832.81;5071607;28;20453;-45
2023/10/19 05:30:58;;;;;;;0.20;0.13;;;;;;;17.70;100.00;96825.69;5053287;28;20107;-45
2023/10/19 05:33:24;;;;;;;0.80;0.28;;;;;;;17.86;100.00;96837.63;5071508;28;20029;-45
2023/10/19 05:35:51;;;;;;;1.35;0.68;;;;;;;17.82;100.00;96830.53;5053587;28;20023;-44
2023/10/19 05:38:19;;;;;;;0.13;0.13;;;;;;;17.86;100.00;96827.00;5071835;28;20051;-45
2023/10/19 05:40:45;;;;;;;1.38;1.08;;;;;;;17.78;100.00;96825.78;5071807;28;20101;-45
2023/10/19 05:43:11;;;;;;;0.00;0.00;;;;;;;17.64;100.00;96821.53;5070398;28;20025;-44
2023/10/19 05:45:40;;;;;;;0.47;0.47;;;;;;;17.61;100.00;96809.66;5071396;28;20021;-45
2023/10/19 05:48:06;;;;;;;0.17;0.17;;;;;;;17.73;100.00;96811.84;5053589;28;20025;-45
2023/10/19 05:50:36;;;;;;;0.00;0.00;;;;;;;17.69;100.00;96811.63;5071713;28;20025;-44
2023/10/19 05:53:05;;;;;;;0.38;0.38;;;;;;;17.51;100.00;96815.91;5071485;28;20077;-44
2023/10/19 05:55:31;;;;;;;0.00;0.00;;;;;;;17.36;100.00;96809.00;5071500;28;20059;-44
2023/10/19 05:57:57;;;;;;;0.00;0.00;;;;;;;17.14;100.00;96811.47;5071414;28;20051;-44
2023/10/19 06:00:25;;;;;;;0.00;0.00;;;;;;;17.05;100.00;96802.63;5071654;28;20021;-44
2023/10/19 06:02:52;;;;;;;0.00;0.00;;;;;;;16.97;100.00;96809.34;5071533;28;20043;-44
2023/10/19 06:05:19;;;;;;;0.00;0.00;;;;;;;17.04;100.00;96806.31;5071067;28;20089;-44
2023/10/19 06:07:46;;;;;;;0.00;0.00;;;;;;;17.16;100.00;96804.81;5071264;28;20025;-44
2023/10/19 06:10:15;;;;;;;0.10;0.10;;;;;;;17.37;100.00;96807.13;5071338;28;20025;-44
2023/10/19 06:12:43;;;;;;;0.00;0.00;;;;;;;17.65;100.00;96815.94;5071314;28;20031;-45
2023/10/19 06:15:13;;;;;;;0.10;0.10;;;;;;;17.78;100.00;96814.38;5053305;28;20115;-44
2023/10/19 06:17:43;;;;;;;0.10;0.10;;;;;;;17.89;100.00;96807.84;5071819;28;20104;-44
2023/10/19 06:20:19;;;;;;;0.00;0.00;;;;;;;17.85;100.00;96806.06;5071239;28;20024;-45
2023/10/19 06:22:50;;;;;;;0.00;0.00;;;;;;;17.96;100.00;96804.81;5071323;28;20032;-44
2023/10/19 06:25:21;;;;;;;0.20;0.20;;;;;;;18.12;100.00;96803.44;5071174;28;20020;-44
2023/10/19 06:27:48;;;;;;;0.00;0.00;;;;;;;18.11;100.00;96806.38;5071057;28;20056;-44
2023/10/19 06:30:18;;;;;;;6.00;0.47;;;;;;;18.07;100.00;96813.34;5071377;28;20438;-44
2023/10/19 06:33:03;;;;;;;0.13;0.13;;;;;;;17.99;100.00;96833.44;5071390;28;20522;-44
2023/10/19 06:35:33;;;;;;;0.10;0.10;;;;;;;17.88;100.00;96824.84;5053034;28;20097;-44
2023/10/19 06:38:00;;;;;;;0.00;0.00;;;;;;;17.74;100.00;96811.53;5071129;28;20033;-43
2023/10/19 06:40:27;;;;;;;0.00;0.00;;;;;;;17.61;100.00;96808.88;5071015;28;20029;-44
2023/10/19 06:42:56;;;;;;;0.03;0.03;;;;;;;17.53;100.00;96815.63;5073969;28;20440;-44
2023/10/19 06:45:22;;;;;;;0.00;0.00;;;;;;;17.47;100.00;96817.59;5074465;28;20171;-44
2023/10/19 06:51:09;;;;;;;0.20;0.20;;;;;;;17.60;100.00;96818.69;5074569;28;20028;-45
2023/10/19 06:53:36;;;;;;;0.00;0.00;;;;;;;17.47;100.00;96816.78;5056429;28;20398;-45
2023/10/19 06:56:01;;;;;;;0.05;0.05;;;;;;;17.45;100.00;96806.47;5074360;28;20573;-45
2023/10/19 06:58:27;;;;;;;0.00;0.00;;;;;;;17.52;100.00;96787.53;5056397;28;20108;-45
2023/10/19 07:00:56;;;;;;;0.40;0.40;;;;;;;17.66;100.00;96753.06;5056455;28;20394;-45
2023/10/19 07:03:25;;;;;;;0.43;0.43;;;;;;;17.44;100.00;96761.69;5056194;28;20028;-45
2023/10/19 07:05:55;;;;;;;0.47;0.38;;;;;;;17.23;100.00;96817.69;5032541;28;20034;-45
2023/10/19 07:08:21;;;;;;;0.00;0.00;;;;;;;17.39;100.00;96843.97;5034151;28;20041;-45
2023/10/19 07:10:49;;;;;;;0.00;0.00;;;;;;;17.25;100.00;96849.22;5034093;28;20049;-45
2023/10/19 07:13:15;;;;;;;0.00;0.00;;;;;;;16.95;100.00;96841.44;5034047;28;20029;-45
2023/10/19 07:15:41;;;;;;;0.00;0.00;;;;;;;16.68;100.00;96828.81;5033988;28;20049;-45
2023/10/19 07:18:07;;;;;;;0.00;0.00;;;;;;;16.55;100.00;96814.38;5034071;28;20065;-45
2023/10/19 07:20:35;;;;;;;0.00;0.00;;;;;;;16.44;100.00;96804.19;5032682;28;20021;-46
2023/10/19 07:23:26;;;;;;;0.00;0.00;;;;;;;16.54;100.00;96806.72;5033841;28;20033;-46
2023/10/19 07:25:54;;;;;;;0.00;0.00;;;;;;;16.50;100.00;96814.47;5033356;28;20396;-45
2023/10/19 07:28:21;;;;;;;0.00;0.00;;;;;;;16.50;100.00;96805.72;5034188;28;20026;-45
2023/10/19 07:30:47;;;;;;;2.17;1.35;;;;;;;16.55;100.00;96797.72;5032797;28;20033;-46
2023/10/19 07:33:22;;;;;;;0.00;0.00;;;;;;;16.55;100.00;96806.44;5033699;28;20022;-45
2023/10/19 07:35:58;;;;;;;0.03;0.03;;;;;;;16.74;100.00;96801.16;5033791;28;20546;-45
2023/10/19 07:38:25;;;;;;;0.20;0.20;;;;;;;17.03;100.00;96786.22;5033717;28;20033;-45
2023/10/19 07:40:54;;;;;;;0.00;0.00;;;;;;;17.13;100.00;96781.53;5033563;28;20503;-46
2023/10/19 07:43:21;;;;;;;0.00;0.00;;;;;;;17.24;100.00;96773.41;5032261;28;20034;-46
2023/10/19 07:45:48;;;;;;;0.00;0.00;;;;;;;17.15;100.00;96765.34;5033248;28;20021;-46
2023/10/19 07:48:14;;;;;;;0.03;0.03;;;;;;;17.00;100.00;96757.63;5033496;28;20033;-45
2023/10/19 07:50:41;;;;;;;0.00;0.00;;;;;;;16.93;100.00;96742.09;5033420;28;20384;-45
2023/10/19 07:53:09;;;;;;;0.00;0.00;;;;;;;16.96;100.00;96737.03;5032927;28;20426;-45
2023/10/19 07:55:35;;;;;;;0.00;0.00;;;;;;;17.15;100.00;96731.66;5033280;28;20115;-45
2023/10/19 07:58:03;;;;;;;0.10;0.10;;;;;;;17.23;100.00;96729.44;5033304;28;20459;-45
2023/10/19 08:00:33;;;;;;;0.00;0.00;;;;;;;17.33;100.00;96727.38;5033493;28;20028;-45
2023/10/19 08:03:00;;;;;;;0.00;0.00;;;;;;;17.54;100.00;96719.84;5031983;28;20037;-45
2023/10/19 08:05:26;;;;;;;0.05;0.05;;;;;;;17.70;100.00;96720.34;5053389;28;20041;-45
2023/10/19 08:07:52;;;;;;;0.00;0.00;;;;;;;17.91;100.00;96722.66;5072852;28;20025;-45
2023/10/19 08:10:19;;;;;;;0.05;0.05;;;;;;;18.11;100.00;96724.88;5072913;28;20032;-44
2023/10/19 08:12:50;;;;;;;0.00;0.00;;;;;;;18.18;100.00;96721.81;5072914;28;20025;-44
2023/10/19 08:15:17;;;;;;;0.00;0.00;;;;;;;18.30;100.00;96713.34;5072946;28;20028;-44
2023/10/19 08:17:46;;;;;;;0.30;0.30;;;;;;;18.47;100.00;96720.66;5073040;28;20024;-44
2023/10/19 08:20:22;;;;;;;0.40;0.40;;;;;;;18.49;100.00;96726.47;5072726;28;20021;-45
2023/10/19 08:22:50;;;;;;;0.08;0.08;;;;;;;18.50;100.00;96730.69;5072678;28;20035;-44
2023/10/19 08:25:16;;;;;;;0.00;0.00;;;;;;;18.53;100.00;96733.56;5072616;28;20048;-45
2023/10/19 08:27:45;;;;;;;0.00;0.00;;;;;;;18.52;100.00;96728.53;5072467;28;20102;-45
2023/10/19 08:30:14;;;;;;;0.20;0.20;;;;;;;18.47;100.00;96733.94;5072530;28;20035;-45
2023/10/19 08:32:42;;;;;;;0.00;0.00;;;;;;;18.45;100.00;96725.50;5072488;28;20017;-45
2023/10/19 08:35:12;;;;;;;0.00;0.00;;;;;;;18.28;100.00;96734.09;5072471;28;20086;-45
2023/10/19 08:41:00;;;;;;;0.00;0.00;;;;;;;18.52;100.00;96734.63;5072643;28;20066;-46
2023/10/19 08:43:28;;;;;;;0.00;0.00;;;;;;;18.40;100.00;96738.91;5072347;28;20032;-45
2023/10/19 08:45:55;;;;;;;0.10;0.10;;;;;;;18.26;100.00;96736.25;5054810;28;20077;-45
2023/10/19 08:48:20;;;;;;;0.00;0.00;;;;;;;18.24;100.00;96730.47;5072170;28;20025;-45
2023/10/19 08:50:47;;;;;;;0.03;0.03;;;;;;;18.38;100.00;96714.50;5072234;28;20086;-45
2023/10/19 08:53:14;;;;;;;0.00;0.00;;;;;;;18.61;100.00;96707.34;5072088;28;20486;-46
2023/10/19 08:55:39;;;;;;;0.00;0.00;;;;;;;18.82;100.00;96710.34;5054334;28;20024;-46
2023/10/19 08:58:05;;;;;;;1.38;1.27;;;;;;;19.12;100.00;96695.53;5072075;28;20107;-46
2023/10/19 09:00:46;;;;;;;0.00;0.00;;;;;;;19.45;100.00;96700.53;5054055;28;20040;-47
2023/10/19 09:03:13;;;;;;;2.50;0.43;;;;;;;19.84;100.00;96690.97;5071890;28;20067;-47
2023/10/19 09:05:40;;;;;;;0.00;0.00;;;;;;;20.25;100.00;96687.16;5071109;28;20449;-47
2023/10/19 09:08:06;;;;;;;0.30;0.30;;;;;;;20.76;100.00;96688.25;5071926;28;20509;-47
2023/10/19 09:10:32;;;;;;;0.10;0.10;;;;;;;21.78;100.00;96683.28;5071847;28;20021;-46
2023/10/19 09:13:12;;;;;;;0.17;0.17;;;;;;;23.86;100.00;96677.13;5071853;28;20017;-47
2023/10/19 09:15:39;;;;;;;0.00;0.00;;;;;;;24.29;100.00;96665.03;5070698;28;20060;-46
2023/10/19 09:18:31;;;;;;;0.00;0.00;;;;;;;24.32;100.00;96675.81;5071882;28;20017;-47
2023/10/19 09:21:07;;;;;;;0.00;0.00;;;;;;;24.23;100.00;96669.84;5050875;28;20533;-47
2023/10/19 09:23:34;;;;;;;0.03;0.03;;;;;;;24.01;100.00;96671.09;5053762;28;20036;-47
2023/10/19 09:26:05;;;;;;;0.25;0.25;;;;;;;23.98;100.00;96685.16;5053643;28;20119;-47
2023/10/19 09:28:33;;;;;;;0.15;0.15;;;;;;;23.85;100.00;96679.03;5071767;28;20033;-47
2023/10/19 09:31:00;;;;;;;0.10;0.10;;;;;;;23.75;100.00;96671.44;5071602;28;20036;-47
2023/10/19 09:33:27;;;;;;;0.00;0.00;;;;;;;24.73;100.00;96662.44;5071598;28;20019;-47
2023/10/19 09:35:56;;;;;;;0.03;0.03;;;;;;;25.32;100.00;96668.94;5071621;28;20046;-47
2023/10/19 09:38:22;;;;;;;0.70;0.70;;;;;;;26.48;100.00;96651.53;5071594;28;20016;-47
2023/10/19 09:40:50;;;;;;;0.65;0.55;;;;;;;28.18;100.00;96664.78;5071657;28;20035;-47
2023/10/19 09:43:26;;;;;;;0.47;0.47;;;;;;;29.27;100.00;96671.03;5053530;28;20078;-47
2023/10/19 09:45:54;;;;;;;0.30;0.30;;;;;;;30.19;100.00;96663.19;5071794;28;20037;-47
2023/10/19 09:48:19;;;;;;;0.20;0.20;;;;;;;29.10;100.00;96668.94;5071846;28;20083;-47
2023/10/19 09:50:58;;;;;;;0.00;0.00;;;;;;;27.61;100.00;96680.13;5071604;28;20032;-47
2023/10/19 09:53:26;;;;;;;2.22;0.32;;;;;;;26.40;100.00;96665.97;5071397;28;20082;-47
2023/10/19 09:55:56;;;;;;;0.10;0.10;;;;;;;25.58;100.00;96664.94;5053378;28;20020;-47
2023/10/19 09:58:29;;;;;;;4.50;0.63;;;;;;;24.94;100.00;96658.75;5071418;28;20111;-46
2023/10/19 10:00:57;;;;;;;0.13;0.13;;;;;;;24.27;100.00;96656.53;5054172;28;20041;-47
2023/10/19 10:03:51;;;;;;;0.00;0.00;;;;;;;23.63;100.00;96647.34;5071638;28;20025;-47
2023/10/19 10:06:55;;;;;;;0.08;0.08;;;;;;;23.52;100.00;96642.44;5053048;28;20145;-47
2023/10/19 10:09:21;;;;;;;0.20;0.20;;;;;;;24.57;100.00;96632.88;5047173;28;20040;-47
2023/10/19 10:11:50;;;;;;;0.00;0.00;;;;;;;25.38;100.00;96618.44;5053612;28;20082;-47
2023/10/19 10:14:29;;;;;;;0.00;0.00;;;;;;;25.37;100.00;96606.13;5053326;28;20025;-47
2023/10/19 10:17:05;;;;;;;0.20;0.20;;;;;;;25.63;100.00;96627.84;5074315;28;20028;-47
2023/10/19 10:19:31;;;;;;;0.15;0.15;;;;;;;25.63;100.00;96630.53;5075097;28;20504;-47
2023/10/19 10:22:11;;;;;;;0.20;0.20;;;;;;;25.03;100.00;96627.13;5074904;28;20058;-47
2023/10/19 10:24:47;;;;;;;1.65;0.32;;;;;;;24.54;100.00;96636.25;5074958;28;20040;-47
2023/10/19 10:27:19;;;;;;;2.72;0.80;;;;;;;24.39;100.00;96645.78;5075053;28;20021;-47
2023/10/19 10:29:56;;;;;;;0.00;0.00;;;;;;;24.34;100.00;96643.31;5074854;28;20033;-47
2023/10/19 10:32:44;;;;;;;0.45;0.45;;;;;;;24.36;100.00;96646.44;5056780;28;20021;-47
2023/10/19 10:35:10;;;;;;;0.70;0.43;;;;;;;24.16;100.00;96640.13;5074728;28;20082;-46
2023/10/19 10:37:39;;;;;;;0.77;0.38;;;;;;;24.07;100.00;96634.91;5074695;28;20024;-47
2023/10/19 10:40:06;;;;;;;0.20;0.20;;;;;;;24.32;100.00;96635.59;5074495;28;20028;-47
2023/10/19 10:42:34;;;;;;;0.03;0.03;;;;;;;24.85;100.00;96624.81;5074578;28;20024;-47
2023/10/19 10:44:59;;;;;;;0.22;0.22;;;;;;;25.54;100.00;96624.56;5074535;28;20032;-47
2023/10/19 10:47:25;;;;;;;0.00;0.00;;;;;;;25.89;100.00;96615.72;5074388;28;20016;-47
2023/10/19 10:49:53;;;;;;;0.90;0.73;;;;;;;26.93;100.00;96611.66;5074481;28;20456;-47
2023/10/19 10:52:31;;;;;;;0.17;0.17;;;;;;;27.76;100.00;96602.94;5074470;28;20025;-47
2023/10/19 10:54:59;;;;;;;0.20;0.20;;;;;;;27.61;100.00;96610.84;5074397;28;20504;-47
2023/10/19 10:57:32;;;;;;;3.58;0.88;;;;;;;26.88;100.00;96608.13;5056364;28;20090;-47
2023/10/19 11:00:07;;;;;;;0.05;0.05;;;;;;;26.40;100.00;96596.84;5056527;28;20025;-47
2023/10/19 11:02:35;;;;;;;0.05;0.05;;;;;;;25.89;100.00;96589.63;5074307;28;20055;-46
2023/10/19 11:05:01;;;;;;;2.00;0.95;;;;;;;25.65;100.00;96576.44;5073877;28;20045;-47
2023/10/19 11:07:29;;;;;;;0.95;0.90;;;;;;;25.46;100.00;96569.13;5074047;28;20021;-47
2023/10/19 11:09:55;;;;;;;1.55;1.45;;;;;;;25.26;100.00;96576.34;5074110;28;20021;-47
2023/10/19 11:12:21;;;;;;;1.10;1.05;;;;;;;24.92;100.00;96565.94;5074283;28;20035;-46
2023/10/19 11:15:01;;;;;;;0.30;0.30;;;;;;;24.64;100.00;96571.38;5055934;28;20494;-47
2023/10/19 11:17:32;;;;;;;0.45;0.45;;;;;;;24.44;100.00;96542.84;5072840;28;20028;-47
2023/10/19 11:19:58;;;;;;;0.15;0.13;;;;;;;24.78;100.00;96543.34;5073911;28;20398;-47
2023/10/19 11:22:26;;;;;;;0.00;0.00;;;;;;;25.28;100.00;96529.22;5056174;28;20043;-47
2023/10/19 11:24:53;;;;;;;1.00;0.95;;;;;;;25.98;100.00;96524.16;5072642;28;20391;-47
2023/10/19 11:27:29;;;;;;;0.43;0.22;;;;;;;26.61;100.00;96513.06;5072820;28;20025;-47
2023/10/19 11:29:59;;;;;;;0.00;0.00;;;;;;;26.80;100.00;96498.78;5073697;28;20067;-47
2023/10/19 11:32:25;;;;;;;0.00;0.00;;;;;;;26.97;100.00;96505.56;5055696;28;20048;-47
2023/10/19 11:34:57;;;;;;;0.00;0.00;;;;;;;27.36;100.00;96493.84;5073886;28;20117;-47
2023/10/19 11:37:23;;;;;;;0.00;0.00;;;;;;;27.64;100.00;96491.50;5073491;28;20032;-47
2023/10/19 11:39:52;;;;;;;0.03;0.03;;;;;;;27.90;100.00;96479.16;5055583;28;20024;-47
2023/10/19 11:42:18;;;;;;;0.05;0.05;;;;;;;28.08;100.00;96468.56;5073413;28;20478;-47
2023/10/19 11:44:45;;;;;;;0.08;0.08;;;;;;;28.20;100.00;96457.50;5055428;28;20020;-47
2023/10/19 11:47:10;;;;;;;0.13;0.13;;;;;;;27.73;100.00;96448.13;5073314;28;20024;-47
2023/10/19 11:49:37;;;;;;;0.10;0.10;;;;;;;27.60;100.00;96449.50;5073369;28;20059;-47
2023/10/19 11:52:07;;;;;;;2.63;1.30;;;;;;;27.46;100.00;96439.31;5055623;28;20028;-46
2023/10/19 11:54:35;;;;;;;1.27;0.88;;;;;;;27.22;100.00;96445.91;5073345;28;20025;-47
2023/10/19 11:57:01;;;;;;;0.00;0.00;;;;;;;26.75;100.00;96444.50;5073143;28;20537;-47
2023/10/19 11:59:27;;;;;;;0.28;0.25;;;;;;;26.25;100.00;96433.66;5073152;28;20017;-47
2023/10/19 12:01:54;;;;;;;0.10;0.10;;;;;;;25.77;100.00;96433.16;5073131;28;20067;-47
2023/10/19 12:04:20;;;;;;;0.00;0.00;;;;;;;25.49;100.00;96431.44;5072764;28;20028;-47
2023/10/19 12:06:48;;;;;;;0.00;0.00;;;;;;;25.29;100.00;96427.97;5072944;28;20070;-46
2023/10/19 12:09:17;;;;;;;0.10;0.10;;;;;;;25.25;100.00;96417.19;5072979;28;20021;-47
2023/10/19 12:11:44;;;;;;;0.10;0.10;;;;;;;25.20;100.00;96411.28;5054935;28;20036;-47
2023/10/19 12:14:14;;;;;;;0.00;0.00;;;;;;;25.26;100.00;96416.03;5073151;28;20085;-47
2023/10/19 12:16:41;;;;;;;0.00;0.00;;;;;;;25.35;100.00;96405.09;5072832;28;20032;-47